createdAt,value
2023-01-17T00:02:19.226Z,8.63
2023-01-17T00:05:04.559Z,9.93
2023-01-17T00:07:51.643Z,8.57
2023-01-17T00:10:22.174Z,10.60
2023-01-17T00:12:52.434Z,10.50
2023-01-17T00:17:53.200Z,10.82
2023-01-17T00:20:41.730Z,11.30
2023-01-17T00:23:32.487Z,8.07
2023-01-17T00:26:04.244Z,11.95
2023-01-17T00:28:33.769Z,10.30
2023-01-17T00:31:03.679Z,11.75
2023-01-17T00:33:31.512Z,11.85
2023-01-17T00:36:00.474Z,11.80
2023-01-17T00:38:29.874Z,11.68
2023-01-17T00:41:02.300Z,9.73
2023-01-17T00:43:49.125Z,12.02
2023-01-17T00:46:37.651Z,12.27
2023-01-17T00:49:24.209Z,10.38
2023-01-17T00:52:10.512Z,12.13
2023-01-17T00:54:56.953Z,12.02
2023-01-17T00:57:43.455Z,13.23
2023-01-17T01:00:30.982Z,13.15
2023-01-17T01:03:21.981Z,13.65
2023-01-17T01:06:08.109Z,9.40
2023-01-17T01:08:54.375Z,13.35
2023-01-17T01:11:41.085Z,13.02
2023-01-17T01:14:29.160Z,13.23
2023-01-17T01:17:15.892Z,11.35
2023-01-17T01:20:03.645Z,13.02
2023-01-17T01:22:50.137Z,14.05
2023-01-17T01:25:36.185Z,13.65
2023-01-17T01:28:23.882Z,15.23
2023-01-17T01:31:10.063Z,13.85
2023-01-17T01:33:39.110Z,15.40
2023-01-17T01:36:10.903Z,12.02
2023-01-17T01:38:40.101Z,15.40
2023-01-17T01:41:09.241Z,15.20
2023-01-17T01:43:46.869Z,14.18
2023-01-17T01:46:18.554Z,15.68
2023-01-17T01:48:50.817Z,14.68
2023-01-17T01:51:24.991Z,15.77
2023-01-17T01:53:59.840Z,14.93
2023-01-17T01:56:29.454Z,15.00
2023-01-17T01:58:58.737Z,11.85
2023-01-17T02:01:27.944Z,15.93
2023-01-17T02:03:57.010Z,14.75
2023-01-17T02:06:31.778Z,11.35
2023-01-17T02:09:03.961Z,15.35
2023-01-17T02:11:33.539Z,9.80
2023-01-17T02:14:02.672Z,15.15
2023-01-17T02:16:44.536Z,12.23
2023-01-17T02:19:40.700Z,9.45
2023-01-17T02:22:29.252Z,12.23
2023-01-17T02:25:15.819Z,16.05
2023-01-17T02:27:54.997Z,14.23
2023-01-17T02:30:35.804Z,15.88
2023-01-17T02:33:09.165Z,13.88
2023-01-17T02:35:43.866Z,15.57
2023-01-17T02:38:31.334Z,12.98
2023-01-17T02:41:05.363Z,11.32
2023-01-17T02:43:34.846Z,9.95
2023-01-17T02:46:05.810Z,16.27
2023-01-17T02:48:37.943Z,11.60
2023-01-17T02:51:36.833Z,14.57
2023-01-17T02:54:15.612Z,10.50
2023-01-17T02:56:50.762Z,9.88
2023-01-17T02:59:33.502Z,7.55
2023-01-17T03:02:11.401Z,13.13
2023-01-17T03:04:48.269Z,14.07
2023-01-17T03:07:19.270Z,13.68
2023-01-17T03:09:50.439Z,10.95
2023-01-17T03:12:21.234Z,11.60
2023-01-17T03:14:50.350Z,13.27
2023-01-17T03:17:21.212Z,16.90
2023-01-17T03:19:49.906Z,11.88
2023-01-17T03:22:18.923Z,15.48
2023-01-17T03:24:48.161Z,11.13
2023-01-17T03:27:17.300Z,12.05
2023-01-17T03:29:46.317Z,15.88
2023-01-17T03:32:15.325Z,12.65
2023-01-17T03:34:45.428Z,12.25
2023-01-17T03:37:14.463Z,8.80
2023-01-17T03:39:43.539Z,12.98
2023-01-17T03:42:12.566Z,8.38
2023-01-17T03:44:41.684Z,9.00
2023-01-17T03:47:12.414Z,10.63
2023-01-17T03:49:41.412Z,8.73
2023-01-17T03:52:11.820Z,10.43
2023-01-17T03:54:40.882Z,10.10
2023-01-17T03:57:09.984Z,13.23
2023-01-17T03:59:39.192Z,11.40
2023-01-17T04:02:08.449Z,13.90
2023-01-17T04:04:37.198Z,14.30
2023-01-17T04:07:06.519Z,10.80
2023-01-17T04:09:37.035Z,13.85
2023-01-17T04:12:06.259Z,11.57
2023-01-17T04:14:35.324Z,14.32
2023-01-17T04:17:04.509Z,12.68
2023-01-17T04:19:33.501Z,12.50
2023-01-17T04:22:02.597Z,12.27
2023-01-17T04:24:31.848Z,9.93
2023-01-17T04:27:02.372Z,15.45
2023-01-17T04:29:31.600Z,10.57
2023-01-17T04:32:00.621Z,13.05
2023-01-17T04:34:29.391Z,9.73
2023-01-17T04:36:58.756Z,13.15
2023-01-17T04:39:27.916Z,14.97
2023-01-17T04:41:56.944Z,13.60
2023-01-17T04:44:27.509Z,14.80
2023-01-17T04:49:25.091Z,10.70
2023-01-17T04:51:54.241Z,13.80
2023-01-17T04:54:23.329Z,10.23
2023-01-17T04:56:52.345Z,16.65
2023-01-17T04:59:21.736Z,15.85
2023-01-17T05:01:52.114Z,12.77
2023-01-17T05:04:21.268Z,11.77
2023-01-17T05:06:50.242Z,7.80
2023-01-17T05:09:19.389Z,16.67
2023-01-17T05:11:48.454Z,14.68
2023-01-17T05:14:17.556Z,12.93
2023-01-17T05:16:46.391Z,12.80
2023-01-17T05:19:16.864Z,12.13
2023-01-17T05:21:46.049Z,14.45
2023-01-17T05:24:15.203Z,14.93
2023-01-17T05:26:44.387Z,9.27
2023-01-17T05:29:13.433Z,15.70
2023-01-17T05:31:42.037Z,16.17
2023-01-17T05:34:11.255Z,9.75
2023-01-17T05:36:41.814Z,14.40
2023-01-17T05:39:10.883Z,10.82
2023-01-17T05:41:39.980Z,11.93
2023-01-17T05:44:09.161Z,11.77
2023-01-17T05:46:37.887Z,8.18
2023-01-17T05:49:07.265Z,15.27
2023-01-17T05:51:38.031Z,13.38
2023-01-17T05:54:08.818Z,10.43
2023-01-17T05:56:37.840Z,13.98
2023-01-17T05:59:06.846Z,8.70
2023-01-17T06:01:35.551Z,12.43
2023-01-17T06:04:04.600Z,12.00
2023-01-17T06:06:34.806Z,12.25
2023-01-17T06:09:04.323Z,9.88
2023-01-17T06:11:35.210Z,10.97
2023-01-17T06:14:04.453Z,13.93
2023-01-17T06:16:33.145Z,14.43
2023-01-17T06:19:02.195Z,9.65
2023-01-17T06:21:31.429Z,13.75
2023-01-17T06:24:01.538Z,17.58
2023-01-17T06:26:35.014Z,16.35
2023-01-17T06:29:04.097Z,9.93
2023-01-17T06:31:32.821Z,10.68
2023-01-17T06:34:04.264Z,15.32
2023-01-17T06:36:34.691Z,15.38
2023-01-17T06:39:03.753Z,12.63
2023-01-17T06:41:34.390Z,10.38
2023-01-17T06:44:03.692Z,14.98
2023-01-17T06:46:32.354Z,11.82
2023-01-17T06:49:01.516Z,11.40
2023-01-17T06:51:30.480Z,8.73
2023-01-17T06:53:59.717Z,13.73
2023-01-17T06:56:31.338Z,17.15
2023-01-17T06:59:01.658Z,16.27
2023-01-17T07:01:31.589Z,14.35
2023-01-17T07:04:00.849Z,14.13
2023-01-17T07:06:32.242Z,16.55
2023-01-17T07:09:01.570Z,14.70
2023-01-17T07:11:30.646Z,10.93
2023-01-17T07:14:01.248Z,11.23
2023-01-17T07:16:30.442Z,12.00
2023-01-17T07:18:59.570Z,13.25
2023-01-17T07:21:29.416Z,13.05
2023-01-17T07:23:58.453Z,8.10
2023-01-17T07:26:27.374Z,14.75
2023-01-17T07:28:55.917Z,13.05
2023-01-17T07:31:26.482Z,14.10
2023-01-17T07:33:55.416Z,6.95
2023-01-17T07:36:24.467Z,8.55
2023-01-17T07:41:23.387Z,7.50
2023-01-17T07:43:52.049Z,10.77
2023-01-17T07:46:21.563Z,9.73
2023-01-17T07:48:52.153Z,8.73
2023-01-17T07:51:21.139Z,13.77
2023-01-17T07:53:50.201Z,10.45
2023-01-17T07:56:19.197Z,9.23
2023-01-17T07:58:48.665Z,11.88
2023-01-17T08:01:18.608Z,10.98
2023-01-17T08:03:47.791Z,11.30
2023-01-17T08:06:21.219Z,9.07
2023-01-17T08:08:50.550Z,7.22
2023-01-17T08:11:19.971Z,8.33
2023-01-17T08:13:48.940Z,8.93
2023-01-17T08:16:18.245Z,8.40
2023-01-17T08:18:47.469Z,6.78
2023-01-17T08:21:18.648Z,8.63
2023-01-17T08:23:49.794Z,6.03
2023-01-17T08:26:22.576Z,8.85
2023-01-17T08:28:56.497Z,7.68
2023-01-17T08:31:25.992Z,6.18
2023-01-17T08:33:55.041Z,7.40
2023-01-17T08:36:27.715Z,8.60
2023-01-17T08:38:56.955Z,6.00
2023-01-17T08:41:27.539Z,7.43
2023-01-17T08:43:56.142Z,5.32
2023-01-17T08:46:25.752Z,7.97
2023-01-17T08:48:55.843Z,4.70
2023-01-17T08:51:26.585Z,5.72
2023-01-17T08:53:56.812Z,6.47
2023-01-17T08:56:26.099Z,7.53
2023-01-17T08:58:54.740Z,9.23
2023-01-17T09:01:23.961Z,4.82
2023-01-17T09:03:57.094Z,5.15
2023-01-17T09:06:27.617Z,8.32
2023-01-17T09:08:57.134Z,7.78
2023-01-17T09:11:26.192Z,8.90
2023-01-17T09:13:54.949Z,6.80
2023-01-17T09:16:24.017Z,8.68
2023-01-17T09:18:55.412Z,6.97
2023-01-17T09:21:25.020Z,7.57
2023-01-17T09:23:56.876Z,8.00
2023-01-17T09:26:27.514Z,8.07
2023-01-17T09:31:27.081Z,8.43
2023-01-17T09:33:57.762Z,9.80
2023-01-17T09:36:29.247Z,12.32
2023-01-17T09:39:00.303Z,9.45
2023-01-17T09:41:32.116Z,9.15
2023-01-17T09:44:07.749Z,7.82
2023-01-17T09:46:40.188Z,9.40
2023-01-17T09:49:10.825Z,8.68
2023-01-17T09:51:40.223Z,9.43
2023-01-17T09:54:17.620Z,9.50
2023-01-17T09:56:51.680Z,5.65
2023-01-17T09:59:33.099Z,9.68
2023-01-17T10:02:12.398Z,6.30
2023-01-17T10:04:52.323Z,9.40
2023-01-17T10:07:30.247Z,9.70
2023-01-17T10:10:18.157Z,9.00
2023-01-17T10:12:52.205Z,9.75
2023-01-17T10:15:37.415Z,11.32
2023-01-17T10:18:29.484Z,7.53
2023-01-17T10:21:05.761Z,8.77
2023-01-17T10:23:46.867Z,11.40
2023-01-17T10:26:19.307Z,11.13
2023-01-17T10:28:51.321Z,8.27
2023-01-17T10:31:24.335Z,9.55
2023-01-17T10:33:54.303Z,6.88
2023-01-17T10:36:25.329Z,11.25
2023-01-17T10:38:56.905Z,5.93
2023-01-17T10:41:29.862Z,6.55
2023-01-17T10:44:05.995Z,9.82
2023-01-17T10:46:40.721Z,11.40
2023-01-17T10:49:16.495Z,10.85
2023-01-17T10:52:00.350Z,11.50
2023-01-17T10:54:41.899Z,9.40
2023-01-17T10:57:15.983Z,9.98
2023-01-17T10:59:45.416Z,12.02
2023-01-17T11:02:20.982Z,11.93
2023-01-17T11:04:54.546Z,11.27
2023-01-17T11:07:25.214Z,9.50
2023-01-17T11:09:56.299Z,6.22
2023-01-17T11:12:29.888Z,9.23
2023-01-17T11:15:07.543Z,10.80
2023-01-17T11:17:38.361Z,9.75
2023-01-17T11:20:20.114Z,9.45
2023-01-17T11:23:03.613Z,10.35
2023-01-17T11:25:34.610Z,10.68
2023-01-17T11:28:07.326Z,11.07
2023-01-17T11:30:36.518Z,9.25
2023-01-17T11:33:08.976Z,10.65
2023-01-17T11:35:43.395Z,10.00
2023-01-17T11:38:18.147Z,11.98
2023-01-17T11:40:47.658Z,9.65
2023-01-17T11:43:24.355Z,10.57
2023-01-17T11:46:10.772Z,10.43
2023-01-17T11:48:40.524Z,12.02
2023-01-17T11:51:26.234Z,7.03
2023-01-17T11:53:56.841Z,9.00
2023-01-17T11:56:33.079Z,9.35
2023-01-17T11:59:30.048Z,10.23
2023-01-17T12:02:32.061Z,9.73
2023-01-17T12:05:10.819Z,8.00
2023-01-17T12:07:44.284Z,8.00
2023-01-17T12:10:17.864Z,9.30
2023-01-17T12:13:13.679Z,10.65
2023-01-17T12:15:54.371Z,7.43
2023-01-17T12:18:37.063Z,9.68
2023-01-17T12:21:23.274Z,8.80
2023-01-17T12:23:59.834Z,11.57
2023-01-17T12:26:35.800Z,11.23
2023-01-17T12:29:43.592Z,9.00
2023-01-17T12:32:37.562Z,13.43
2023-01-17T12:35:13.377Z,13.93
2023-01-17T12:37:44.519Z,12.00
2023-01-17T12:40:22.333Z,14.32
2023-01-17T12:42:54.856Z,13.02
2023-01-17T12:45:27.361Z,15.00
2023-01-17T12:48:01.505Z,11.75
2023-01-17T12:50:34.214Z,8.32
2023-01-17T12:53:06.815Z,12.50
2023-01-17T12:55:39.791Z,13.23
2023-01-17T12:58:16.397Z,11.73
2023-01-17T13:00:47.850Z,13.07
2023-01-17T13:03:24.847Z,14.77
2023-01-17T13:05:54.140Z,6.93
2023-01-17T13:08:28.527Z,12.98
2023-01-17T13:10:59.787Z,13.10
2023-01-17T13:13:30.590Z,12.50
2023-01-17T13:16:03.564Z,13.40
2023-01-17T13:18:34.088Z,13.55
2023-01-17T13:21:16.791Z,11.20
2023-01-17T13:24:07.369Z,12.80
2023-01-17T13:26:46.105Z,13.43
2023-01-17T13:29:22.307Z,13.75
2023-01-17T13:32:01.942Z,10.82
2023-01-17T13:35:01.014Z,10.35
2023-01-17T13:38:10.183Z,12.20
2023-01-17T13:40:47.520Z,13.80
2023-01-17T13:43:21.219Z,13.57
2023-01-17T13:45:54.603Z,11.15
2023-01-17T13:48:28.785Z,13.90
2023-01-17T13:51:00.120Z,14.25
2023-01-17T13:53:59.169Z,12.27
2023-01-17T13:56:31.346Z,13.35
2023-01-17T13:59:06.021Z,14.25
2023-01-17T14:01:54.195Z,14.55
2023-01-17T14:04:24.790Z,13.55
2023-01-17T14:07:01.208Z,13.63
2023-01-17T14:09:39.529Z,14.80
2023-01-17T14:12:26.487Z,14.23
2023-01-17T14:14:57.179Z,13.77
2023-01-17T14:17:55.885Z,14.60
2023-01-17T14:20:52.805Z,14.75
2023-01-17T14:23:39.676Z,14.05
2023-01-17T14:26:43.182Z,13.95
2023-01-17T14:29:48.880Z,14.02
2023-01-17T14:32:19.998Z,13.75
2023-01-17T14:34:50.659Z,13.48
2023-01-17T14:37:27.381Z,13.82
2023-01-17T14:39:57.877Z,12.48
2023-01-17T14:42:28.341Z,11.80
2023-01-17T14:45:03.013Z,11.40
2023-01-17T14:47:33.406Z,13.25
2023-01-17T14:50:22.507Z,10.98
2023-01-17T14:53:08.619Z,12.20
2023-01-17T14:55:39.718Z,11.82
2023-01-17T14:58:17.764Z,12.10
2023-01-17T15:00:49.350Z,11.93
2023-01-17T15:03:19.927Z,11.88
2023-01-17T15:05:50.710Z,11.63
2023-01-17T15:08:21.774Z,13.75
2023-01-17T15:10:55.170Z,14.18
2023-01-17T15:13:43.101Z,11.80
2023-01-17T15:16:20.645Z,11.68
2023-01-17T15:18:50.063Z,15.05
2023-01-17T15:21:20.744Z,16.27
2023-01-17T15:23:52.073Z,24.35
2023-01-17T15:26:25.353Z,24.05
2023-01-17T15:28:54.839Z,16.88
2023-01-17T15:31:40.594Z,18.60
2023-01-17T15:34:13.786Z,21.10
2023-01-17T15:36:42.915Z,21.33
2023-01-17T15:39:20.315Z,20.13
2023-01-17T15:41:53.008Z,19.95
2023-01-17T15:44:42.665Z,22.33
2023-01-17T15:47:30.184Z,22.27
2023-01-17T15:49:59.873Z,23.52
2023-01-17T15:52:28.948Z,22.35
2023-01-17T15:55:00.414Z,22.17
2023-01-17T15:57:36.913Z,21.33
2023-01-17T16:00:08.788Z,25.15
2023-01-17T16:02:43.154Z,20.77
2023-01-17T16:05:42.027Z,24.92
2023-01-17T16:08:30.662Z,20.30
2023-01-17T16:11:02.407Z,21.73
2023-01-17T16:13:35.386Z,25.23
2023-01-17T16:16:22.223Z,25.08
2023-01-17T16:18:57.034Z,23.50
2023-01-17T16:21:27.629Z,23.98
2023-01-17T16:23:57.057Z,20.23
2023-01-17T16:26:26.236Z,20.07
2023-01-17T16:28:56.355Z,26.00
2023-01-17T16:31:25.553Z,23.30
2023-01-17T16:33:54.688Z,21.95
2023-01-17T16:36:23.789Z,25.38
2023-01-17T16:38:53.279Z,25.00
2023-01-17T16:41:22.333Z,19.50
2023-01-17T16:44:03.404Z,27.05
2023-01-17T16:46:32.474Z,27.35
2023-01-17T16:49:02.543Z,26.67
2023-01-17T16:51:31.638Z,28.42
2023-01-17T16:54:00.771Z,28.52
2023-01-17T16:56:29.968Z,27.67
2023-01-17T16:58:58.994Z,31.52
2023-01-17T17:01:29.148Z,26.98
2023-01-17T17:03:58.151Z,23.65
2023-01-17T17:06:27.319Z,24.95
2023-01-17T17:08:56.370Z,28.92
2023-01-17T17:11:25.345Z,27.52
2023-01-17T17:13:54.026Z,29.60
2023-01-17T17:16:26.531Z,31.05
2023-01-17T17:18:58.579Z,28.63
2023-01-17T17:21:28.291Z,31.00
2023-01-17T17:23:58.531Z,28.38
2023-01-17T17:28:58.003Z,28.60
2023-01-17T17:31:27.291Z,27.75
2023-01-17T17:34:00.898Z,24.03
2023-01-17T17:36:30.119Z,35.00
2023-01-17T17:38:59.541Z,37.08
2023-01-17T17:41:30.203Z,35.97
2023-01-17T17:46:29.148Z,36.47
2023-01-17T17:49:00.259Z,32.97
2023-01-17T17:51:31.207Z,34.63
2023-01-17T17:54:01.783Z,41.75
2023-01-17T17:56:31.860Z,39.70
2023-01-17T18:01:32.153Z,40.03
2023-01-17T18:04:04.504Z,37.13
2023-01-17T18:06:34.565Z,40.10
2023-01-17T18:09:03.784Z,40.90
2023-01-17T18:11:33.331Z,34.33
2023-01-17T18:14:03.931Z,33.67
2023-01-17T18:19:03.783Z,38.55
2023-01-17T18:21:34.362Z,43.55
2023-01-17T18:24:05.401Z,37.47
2023-01-17T18:26:36.022Z,44.28
2023-01-17T18:29:06.091Z,43.38
2023-01-17T18:31:35.279Z,40.17
2023-01-17T18:34:08.829Z,43.00
2023-01-17T18:36:38.370Z,37.92
2023-01-17T18:39:12.609Z,42.45
2023-01-17T18:41:41.907Z,34.50
2023-01-17T18:44:11.609Z,20.70
2023-01-17T18:46:42.166Z,42.33
2023-01-17T18:49:15.495Z,39.65
2023-01-17T18:51:47.692Z,40.92
2023-01-17T18:54:16.731Z,27.00
2023-01-17T18:56:45.704Z,41.65
2023-01-17T18:59:18.359Z,45.67
2023-01-17T19:01:47.413Z,46.72
2023-01-17T19:04:19.008Z,47.67
2023-01-17T19:06:49.452Z,49.70
2023-01-17T19:09:18.843Z,50.03
2023-01-17T19:11:47.839Z,43.67
2023-01-17T19:14:16.948Z,48.28
2023-01-17T19:16:45.642Z,50.30
2023-01-17T19:19:17.543Z,36.63
2023-01-17T19:21:46.927Z,46.00
2023-01-17T19:24:18.409Z,31.77
2023-01-17T19:26:48.201Z,32.92
2023-01-17T19:29:17.216Z,46.35
2023-01-17T19:31:45.889Z,40.28
2023-01-17T19:34:16.114Z,28.20
2023-01-17T19:36:47.223Z,49.03
2023-01-17T19:39:16.615Z,43.88
2023-01-17T19:41:46.368Z,40.63
2023-01-17T19:44:15.720Z,55.78
2023-01-17T19:46:46.155Z,47.17
2023-01-17T19:49:19.818Z,47.53
2023-01-17T19:51:50.790Z,48.83
2023-01-17T19:54:19.837Z,47.80
2023-01-17T19:56:48.876Z,41.53
2023-01-17T19:59:20.132Z,50.00
2023-01-17T20:01:49.192Z,44.03
2023-01-17T20:04:18.733Z,45.65
2023-01-17T20:06:49.498Z,48.42
2023-01-17T20:09:18.947Z,45.47
2023-01-17T20:11:48.919Z,44.90
2023-01-17T20:14:18.142Z,49.25
2023-01-17T20:16:48.671Z,49.35
2023-01-17T20:19:17.848Z,52.17
2023-01-17T20:21:47.177Z,52.72
2023-01-17T20:24:17.731Z,52.42
2023-01-17T20:26:46.724Z,52.33
2023-01-17T20:29:17.232Z,53.03
2023-01-17T20:34:19.693Z,47.55
2023-01-17T20:36:48.910Z,48.05
2023-01-17T20:39:19.679Z,52.55
2023-01-17T20:41:51.517Z,45.20
2023-01-17T20:44:20.838Z,54.83
2023-01-17T20:46:49.411Z,44.40
2023-01-17T20:49:20.294Z,53.33
2023-01-17T20:51:49.498Z,47.03
2023-01-17T20:54:20.459Z,47.95
2023-01-17T20:56:49.587Z,51.10
2023-01-17T20:59:21.667Z,52.17
2023-01-17T21:01:50.908Z,46.80
2023-01-17T21:04:25.786Z,39.22
2023-01-17T21:06:55.446Z,45.53
2023-01-17T21:09:25.891Z,48.47
2023-01-17T21:12:01.061Z,61.13
2023-01-17T21:14:30.414Z,56.95
2023-01-17T21:16:59.505Z,58.95
2023-01-17T21:19:28.469Z,44.42
2023-01-17T21:21:57.523Z,42.67
2023-01-17T21:24:29.485Z,57.22
2023-01-17T21:26:58.708Z,54.50
2023-01-17T21:29:29.239Z,42.28
2023-01-17T21:31:58.201Z,50.80
2023-01-17T21:34:27.718Z,55.20
2023-01-17T21:36:56.883Z,46.03
2023-01-17T21:39:29.242Z,53.13
2023-01-17T21:41:59.523Z,56.75
2023-01-17T21:44:36.832Z,56.15
2023-01-17T21:47:05.608Z,58.35
2023-01-17T21:49:34.585Z,54.92
2023-01-17T21:52:22.037Z,50.47
2023-01-17T21:55:09.764Z,57.13
2023-01-17T21:57:56.261Z,35.58
2023-01-17T22:00:26.118Z,39.78
2023-01-17T22:02:56.947Z,53.35
2023-01-17T22:05:27.069Z,45.25
2023-01-17T22:08:15.319Z,54.35
2023-01-17T22:10:45.867Z,52.40
2023-01-17T22:13:15.974Z,48.55
2023-01-17T22:15:44.992Z,51.13
2023-01-17T22:18:14.661Z,47.60
2023-01-17T22:20:43.870Z,48.42
2023-01-17T22:23:12.881Z,48.75
2023-01-17T22:25:41.472Z,49.10
2023-01-17T22:28:11.950Z,49.67
2023-01-17T22:30:41.008Z,47.67
2023-01-17T22:33:10.096Z,45.95
2023-01-17T22:35:39.063Z,48.25
2023-01-17T22:38:08.115Z,47.38
2023-01-17T22:40:38.447Z,46.03
2023-01-17T22:43:07.714Z,46.20
2023-01-17T22:45:38.221Z,49.75
2023-01-17T22:48:09.934Z,49.17
2023-01-17T22:50:39.013Z,46.75
2023-01-17T22:53:08.712Z,49.53
2023-01-17T22:55:37.493Z,49.35
2023-01-17T22:58:06.870Z,48.55
2023-01-17T23:00:37.296Z,49.20
2023-01-17T23:03:06.865Z,48.00
2023-01-17T23:05:46.525Z,50.65
2023-01-17T23:08:15.452Z,35.75
2023-01-17T23:11:01.268Z,48.30
2023-01-17T23:13:30.205Z,44.28
2023-01-17T23:16:23.534Z,46.58
2023-01-17T23:19:09.714Z,47.35
2023-01-17T23:21:52.400Z,45.65
2023-01-17T23:24:21.299Z,46.75
2023-01-17T23:27:03.922Z,45.53
2023-01-17T23:29:33.195Z,42.72
2023-01-17T23:32:03.586Z,43.90
2023-01-17T23:34:32.217Z,43.95
2023-01-17T23:37:01.073Z,44.20
2023-01-17T23:39:30.781Z,45.10
2023-01-17T23:42:16.955Z,41.45
2023-01-17T23:44:45.910Z,44.33
2023-01-17T23:47:16.283Z,43.22
2023-01-17T23:49:45.584Z,44.05
2023-01-17T23:52:14.475Z,45.15
2023-01-17T23:54:44.595Z,44.38
2023-01-17T23:57:13.755Z,42.35
2023-01-17T23:59:42.611Z,46.78
